Benvolgut visitant, si us plau, ingressa Recuperar contrasenya
AVAMET paisatges
Union Alcoyana

Coix El Jazminado

Dades diàries. Acumulats / Últims 30 dies disponibles

Data Temperatura (°C) Humitat rel. (%) Pressió rel. (hPa) Vent (km/h) Precipitació
Mínima Mitjana Màxima Amplitud
tèrmica
Mínima Mitjana Màxima Mínima Mitjana Màxima Predom. Mitjana Ràfega
màxima
Total
(mm)
Índex-n
Mínima Mitjana Màxima Mínima Mitjana Màxima n
0 a 1
P0 max
mm 5'
Dades mensuals acumulades fins l'últim dia disponible
05/2022 11,7 14,3 17,8 20,2 17,1 26,2 30,8 19,1   4,9 35,4 50,0
Dades anuals acumulades fins l'últim dia disponible
2022 1,3 9,8 18,8 14,6 11,3 20,0 30,8 29,5 11 69 92 1.000 1.021 1.035   5,3 54,7 342,1
Últims 30 dies disponibles
20-05-2022 17,7     25,1     30,8 13,1 SE 6,4 35,4 0,0
19-05-2022 15,8     23,3     29,2 13,4 NNW 7,2 30,6 0,0
18-05-2022 17,8     23,2     28,8 11,0 NNE 4,6 24,1 0,0
17-05-2022 16,9     23,1     29,7 12,8 ENE 4,1 24,1 0,0
16-05-2022 16,2     22,7     29,2 13,0 ENE 4,2 20,9 0,0
15-05-2022 14,3     21,4     27,9 13,6 WNW 4,4 24,1 0,0
14-05-2022 14,6     21,4     27,5 12,9 NE 4,0 22,5 0,0
13-05-2022 15,6     20,9     26,4 10,8 NNW 4,9 24,1 0,0
12-05-2022 12,4     19,3     24,8 12,4 NNW 5,4 30,6 0,0
11-05-2022 12,3     19,6     25,9 13,6 NE 4,6 24,1 0,0
10-05-2022 12,5     19,1     25,4 12,9 NNW 4,6 22,5 0,0
09-05-2022 12,3     19,6     25,2 12,9 ESE 4,8 25,7 0,0
08-05-2022 11,8     19,3     27,2 15,4 W 4,8 29,0 0,0
07-05-2022 12,2     18,6     25,7 13,5 W 4,7 27,4 0,0
06-05-2022 11,7     17,8     24,6 12,9 NNW 4,6 25,7 0,0
05-05-2022 14,9     18,5     24,9 10,0 NW 5,6 25,7 0,3
04-05-2022 13,8     15,0     17,1 3,3 NNW 3,3 24,1 45,5
03-05-2022 13,2     17,4     24,0 10,8 W 4,8 27,4 0,3
02-05-2022 16,3     18,3     22,4 6,1 ESE 6,0 32,2 3,1
01-05-2022 13,7     19,7     26,7 13,0 NNW 4,6 25,7 0,8
30-04-2022 11,6     19,5     27,1 15,5 WNW 7,3 27,4 0,0
29-04-2022 10,4     17,3     22,4 12,0 W 6,2 27,4 0,0
28-04-2022 12,2     14,4     16,2 4,0 NE 2,1 16,1 5,1
27-04-2022 12,9     15,4     19,1 6,2 WNW 2,7 27,4 2,5
26-04-2022 10,4     16,0     21,4 11,0 NW 4,7 25,7 0,0
25-04-2022 10,3     17,0     22,4 12,1 ESE 4,3 22,5 0,0
24-04-2022 9,3     17,1     24,7 15,4 W 5,3 30,6 0,0
23-04-2022 12,2     16,8     21,3 9,1 WNW 11,2 54,7 0,8
22-04-2022 11,4     16,0     20,2 8,8 W 4,4 27,4 0,0
21-04-2022 12,6     16,6     22,1 9,5 WNW 10,9 35,4 0,0
Últims 13 mesos disponibles
04/2022 5,1 11,5 17,3 16,2 11,3 21,0 28,7 23,6 37 57 78 1.009 1.013 1.016 WNW 6,6 54,7 85,8
03/2022 5,9 11,0 18,8 14,2 13,4 18,2 23,2 17,3 49 75 88 1.003 1.016 1.025 W 6,0 49,9 185,2
02/2022 4,0 8,1 12,9 13,4 15,6 19,5 25,9 21,9 38 67 86 1.017 1.024 1.030 WNW 4,5 40,2 4,4
01/2022 1,3 5,8 15,3 10,9 12,1 17,2 24,8 23,5 32 68 86 1.014 1.026 1.032 WNW 4,3 49,9 16,7
12/2021 5,4 10,6 17,0 14,6 14,0 19,2 25,2 19,8 44 65 84 1.009 1.020 1.027 WNW 6,1 51,5 1,9
11/2021 7,3 11,0 18,9 14,9 13,7 19,7 27,4 20,1 43 62 84 1.006 1.015 1.026 WNW 6,4 54,7 61,4
10/2021 12,4 15,9 20,2 20,3 21,4 25,6 31,9 19,5 47 74 87 1.010 1.018 1.026 W 3,9 49,9 49,6
09/2021 16,2 20,7 24,1 25,4 26,8 30,9 35,2 19,0 52 69 80 1.012 1.016 1.023 WNW 5,0 38,6 8,9
08/2021 20,3 23,1 25,4 27,7 29,5 33,2 43,2 22,9 55 68 78 1.006 1.014 1.019 E 5,7 38,6 0,0
07/2021 19,0 21,5 24,0 27,0 28,5 32,7 42,7 23,7 49 67 79 1.008 1.014 1.021 ESE 5,6 45,1 17,5
06/2021 15,1 18,9 22,5 24,1 25,1 29,1 33,6 18,5 44 66 84 1.009 1.016 1.020 ESE 5,9 40,2 29,9
05/2021 12,4 15,4 19,1 20,7 20,3 26,1 36,1 23,7 41 64 84 1.008 1.016 1.023 W 6,1 45,1 104,4
04/2021 7,6 12,4 14,9 16,3 14,6 21,0 28,9 21,3 54 73 86 1.005 1.015 1.024 E 5,0 49,9 66,8
Tots els anys disponibles
2021 1,5 14,7 25,4 19,3 8,7 24,5 43,2 41,7 41 67 87 1.002 1.017 1.034 WNW 5,6 69,2 472,5
Temperatura (°C)
Velocitat del vent i ràfega màxima (km/h)
Direcció del vent (°)
Pressió (hPa)
Precipitació (mm)
Nota sobre les dades: s'avisa a l'usuari de la provisionalitat i no oficialitat d'aquestes dades
Logo AVAMET blanc
Web allotjada a Sollutia
Llicència de Creative CommonsLa web d'AVAMET i els seus continguts estan subjectes a una llicència de
Reconeixement - No Comercial - Compartir igual
Avís legal - Política de privacitat - Política de cookies
NOVES ESTACIONS:  Vila-real - les Solaes (Soci), Calles - Parque de Emergencias (Soci), Bocairent - els Corrals (Soci), Sella - el Xarquer, Xàbia - Far del Cap de la Nau (Soci), Benicàssim - Quadre de Santiago (Soci), Sant Mateu - IES Maestrat (Soci)  / el Palomar (Ajuntament/Soci) / Atzeneta del Maestrat - Pla de Meanes (Ajuntament/Soci) / Onda - Sant Gil (Soci) / Onda - Ràtils CR Cota 220 (Soci) / la Vila Joiosa (Ajuntament/Soci) / Miramar - Platja (Ajuntament/Soci) / Massanassa - IES Massanassa (Soci) / Culla - Pla de les Vinyes (Ajuntament/Soci) - - -